Time;durP1;ratioP1;P1;durP2;ratioP2;P2;SDS_P1;SDS_P2;PMS_P1;PMS_P2;Temp;Humidity;BMP_temperature;BMP_pressure;BME280_temperature;BME280_humidity;BME280_pressure;Samples;Min_cycle;Max_cycle;Signal;HPM_P1;HPM_P2
2023/06/09 00:00:10;;;;;;;8.25;2.63;;;;;;;;;;5031921;28;20198;-71
2023/06/09 00:02:35;;;;;;;8.82;3.28;;;;;;;;;;5034328;28;20530;-71
2023/06/09 00:05:00;;;;;;;7.03;3.33;;;;;;;;;;5030739;28;20195;-71
2023/06/09 00:07:27;;;;;;;6.28;2.55;;;;;;;;;;5030871;28;20188;-71
2023/06/09 00:09:52;;;;;;;6.70;3.10;;;;;;;;;;5040913;22;20225;-75
2023/06/09 00:12:18;;;;;;;9.50;3.25;;;;;;;;;;5004303;28;20676;-75
2023/06/09 00:14:44;;;;;;;7.47;3.00;;;;;;;;;;5017872;28;20329;-75
2023/06/09 00:17:09;;;;;;;10.38;2.88;;;;;;;;;;5017398;28;20202;-75
2023/06/09 00:19:37;;;;;;;9.07;2.53;;;;;;;;;;5010500;28;20206;-75
2023/06/09 00:22:03;;;;;;;6.28;2.95;;;;;;;;;;5016574;28;20183;-75
2023/06/09 00:24:28;;;;;;;8.05;3.15;;;;;;;;;;5009971;28;20276;-75
2023/06/09 00:26:53;;;;;;;9.57;3.15;;;;;;;;;;5017195;28;20183;-75
2023/06/09 00:29:19;;;;;;;8.43;2.30;;;;;;;;;;5010907;28;20768;-75
2023/06/09 00:31:44;;;;;;;8.38;3.00;;;;;;;;;;5013241;28;20660;-75
2023/06/09 00:34:10;;;;;;;7.78;3.15;;;;;;;;;;5010089;28;20211;-75
2023/06/09 00:36:36;;;;;;;5.88;2.70;;;;;;;;;;5001968;28;20183;-75
2023/06/09 00:39:01;;;;;;;8.93;3.42;;;;;;;;;;4988555;28;20661;-75
2023/06/09 00:41:26;;;;;;;6.65;2.40;;;;;;;;;;5013578;28;20186;-75
2023/06/09 00:43:53;;;;;;;5.60;2.70;;;;;;;;;;5012859;28;20172;-75
2023/06/09 00:46:19;;;;;;;11.80;2.50;;;;;;;;;;4995126;28;20190;-75
2023/06/09 00:48:45;;;;;;;9.15;3.60;;;;;;;;;;5009042;28;20277;-75
2023/06/09 00:51:10;;;;;;;13.77;3.47;;;;;;;;;;5009721;28;20198;-75
2023/06/09 00:53:35;;;;;;;7.90;3.55;;;;;;;;;;5000894;28;20735;-75
2023/06/09 00:56:01;;;;;;;5.10;3.47;;;;;;;;;;5011989;28;20277;-76
2023/06/09 00:58:26;;;;;;;8.48;3.53;;;;;;;;;;4993907;28;20179;-75
2023/06/09 01:00:51;;;;;;;9.38;2.72;;;;;;;;;;5012809;28;20294;-75
2023/06/09 01:03:17;;;;;;;16.20;3.55;;;;;;;;;;5017225;28;20187;-75
2023/06/09 01:05:44;;;;;;;7.57;3.38;;;;;;;;;;5011115;28;20261;-75
2023/06/09 01:08:25;;;;;;;7.57;3.95;;;;;;;;;;5002579;28;20678;-75
2023/06/09 01:11:09;;;;;;;6.93;2.72;;;;;;;;;;5012037;28;20199;-75
2023/06/09 01:13:43;;;;;;;12.25;3.92;;;;;;;;;;5008074;28;20226;-75
2023/06/09 01:16:11;;;;;;;12.05;3.88;;;;;;;;;;4999809;28;20174;-75
2023/06/09 01:18:36;;;;;;;8.52;3.20;;;;;;;;;;5016647;28;20167;-75
2023/06/09 01:21:20;;;;;;;8.02;3.65;;;;;;;;;;5012663;28;20202;-75
2023/06/09 01:23:58;;;;;;;9.90;3.40;;;;;;;;;;5013389;28;20185;-75
2023/06/09 01:26:23;;;;;;;8.45;2.92;;;;;;;;;;5005307;28;20185;-75
2023/06/09 01:28:49;;;;;;;7.85;2.97;;;;;;;;;;4996308;28;20171;-75
2023/06/09 01:31:15;;;;;;;8.32;3.03;;;;;;;;;;5016462;28;20199;-74
2023/06/09 01:33:41;;;;;;;8.30;3.28;;;;;;;;;;5014330;28;20287;-75
2023/06/09 01:36:07;;;;;;;9.38;3.53;;;;;;;;;;5016254;28;20892;-74
2023/06/09 01:38:32;;;;;;;12.80;2.97;;;;;;;;;;5016907;28;20287;-75
2023/06/09 01:40:57;;;;;;;9.25;3.47;;;;;;;;;;5007758;28;20195;-74
2023/06/09 01:43:22;;;;;;;9.25;3.30;;;;;;;;;;5006034;28;20186;-75
2023/06/09 01:45:48;;;;;;;8.45;3.58;;;;;;;;;;5018176;28;20241;-74
2023/06/09 01:48:16;;;;;;;6.88;3.25;;;;;;;;;;4986314;28;20235;-74
2023/06/09 01:50:50;;;;;;;8.90;3.45;;;;;;;;;;5012087;28;20198;-75
2023/06/09 01:53:18;;;;;;;7.97;2.85;;;;;;;;;;5005759;28;20249;-75
2023/06/09 01:55:56;;;;;;;8.32;3.85;;;;;;;;;;5016207;28;20186;-75
2023/06/09 01:58:27;;;;;;;7.43;3.17;;;;;;;;;;4994039;28;20179;-74
2023/06/09 02:00:53;;;;;;;8.65;4.57;;;;;;;;;;5012158;28;20191;-74
2023/06/09 02:03:22;;;;;;;7.45;3.25;;;;;;;;;;5008838;28;20175;-75
2023/06/09 02:05:49;;;;;;;7.82;2.97;;;;;;;;;;5014472;28;20175;-75
2023/06/09 02:08:15;;;;;;;7.43;2.70;;;;;;;;;;5009980;28;20182;-74
2023/06/09 02:10:40;;;;;;;7.13;3.05;;;;;;;;;;5017407;28;20217;-75
2023/06/09 02:13:12;;;;;;;5.63;2.90;;;;;;;;;;4996279;28;20412;-75
2023/06/09 02:15:38;;;;;;;8.27;3.08;;;;;;;;;;5010513;28;20163;-75
2023/06/09 02:18:03;;;;;;;6.65;3.15;;;;;;;;;;5021504;28;20178;-75
2023/06/09 02:20:28;;;;;;;6.45;3.10;;;;;;;;;;5017620;28;20194;-75
2023/06/09 02:22:53;;;;;;;8.00;3.05;;;;;;;;;;5011958;28;20182;-75
2023/06/09 02:25:18;;;;;;;7.13;2.83;;;;;;;;;;5015203;28;20557;-74
2023/06/09 02:27:44;;;;;;;9.18;2.63;;;;;;;;;;4994066;28;20237;-75
2023/06/09 02:30:09;;;;;;;7.22;3.22;;;;;;;;;;4995402;28;20187;-75
2023/06/09 02:32:34;;;;;;;6.82;2.88;;;;;;;;;;5009961;28;20199;-75
2023/06/09 02:35:00;;;;;;;12.43;3.33;;;;;;;;;;5007812;28;20210;-75
2023/06/09 02:37:26;;;;;;;5.97;2.67;;;;;;;;;;5003824;28;20298;-75
2023/06/09 02:39:51;;;;;;;9.48;3.30;;;;;;;;;;5010143;28;20681;-75
2023/06/09 02:42:17;;;;;;;8.60;3.28;;;;;;;;;;5004736;28;20183;-76
2023/06/09 02:44:42;;;;;;;7.10;3.03;;;;;;;;;;5010727;28;20179;-76
2023/06/09 02:47:07;;;;;;;11.27;3.60;;;;;;;;;;4996257;28;20416;-76
2023/06/09 02:49:33;;;;;;;8.25;3.20;;;;;;;;;;5008560;28;20792;-76
2023/06/09 02:51:58;;;;;;;11.55;2.97;;;;;;;;;;5009483;28;20179;-76
2023/06/09 02:54:23;;;;;;;10.25;3.13;;;;;;;;;;5012033;28;20206;-75
2023/06/09 02:56:48;;;;;;;7.55;3.05;;;;;;;;;;5014697;28;20653;-75
2023/06/09 02:59:13;;;;;;;6.90;2.72;;;;;;;;;;5011866;28;20233;-75
2023/06/09 03:01:39;;;;;;;9.68;3.13;;;;;;;;;;4994445;28;20186;-75
2023/06/09 03:04:08;;;;;;;6.57;2.95;;;;;;;;;;5019868;28;20214;-75
2023/06/09 03:06:33;;;;;;;9.15;3.00;;;;;;;;;;5020481;28;20594;-75
2023/06/09 03:09:00;;;;;;;8.85;3.28;;;;;;;;;;5016607;28;20178;-76
2023/06/09 03:11:25;;;;;;;8.57;2.75;;;;;;;;;;5018400;28;20218;-76
2023/06/09 03:13:50;;;;;;;7.97;3.08;;;;;;;;;;5016613;28;20233;-75
2023/06/09 03:16:16;;;;;;;7.25;3.15;;;;;;;;;;5008118;28;20178;-76
2023/06/09 03:18:42;;;;;;;5.05;3.10;;;;;;;;;;5019127;28;20258;-76
2023/06/09 03:21:08;;;;;;;7.10;2.83;;;;;;;;;;5013985;28;20310;-75
2023/06/09 03:23:34;;;;;;;4.90;2.42;;;;;;;;;;4994957;28;20640;-76
2023/06/09 03:25:59;;;;;;;5.68;3.22;;;;;;;;;;5003525;28;20228;-76
2023/06/09 03:28:25;;;;;;;9.45;3.45;;;;;;;;;;4995578;28;20270;-76
2023/06/09 03:30:50;;;;;;;14.88;3.85;;;;;;;;;;5011047;28;20301;-75
2023/06/09 03:33:18;;;;;;;7.30;3.22;;;;;;;;;;5012245;28;20325;-75
2023/06/09 03:35:43;;;;;;;8.32;2.92;;;;;;;;;;4993448;28;20171;-76
2023/06/09 03:38:08;;;;;;;9.10;2.97;;;;;;;;;;5009911;28;20188;-76
2023/06/09 03:40:36;;;;;;;10.25;3.72;;;;;;;;;;5003433;28;20715;-76
2023/06/09 03:43:01;;;;;;;8.18;3.22;;;;;;;;;;5012230;28;20597;-75
2023/06/09 03:45:26;;;;;;;6.28;2.83;;;;;;;;;;5009716;28;20282;-75
2023/06/09 03:47:51;;;;;;;5.35;3.20;;;;;;;;;;5013986;28;20178;-74
2023/06/09 03:50:17;;;;;;;6.93;3.17;;;;;;;;;;5010263;28;20226;-75
2023/06/09 03:52:42;;;;;;;8.13;4.00;;;;;;;;;;5006199;28;20670;-76
2023/06/09 03:55:07;;;;;;;8.50;3.22;;;;;;;;;;5014440;28;20577;-76
2023/06/09 03:57:32;;;;;;;7.78;3.22;;;;;;;;;;5008984;28;20171;-75
2023/06/09 03:59:58;;;;;;;7.03;3.22;;;;;;;;;;5011694;28;20198;-75
2023/06/09 04:02:23;;;;;;;7.07;3.63;;;;;;;;;;5015286;28;20203;-75
2023/06/09 04:04:48;;;;;;;9.80;3.38;;;;;;;;;;5014902;28;20179;-76
2023/06/09 04:07:14;;;;;;;9.98;3.20;;;;;;;;;;5013982;28;20191;-75
2023/06/09 04:09:39;;;;;;;8.95;3.03;;;;;;;;;;4999663;28;20198;-75
2023/06/09 04:12:05;;;;;;;9.38;3.90;;;;;;;;;;5012702;28;20667;-75
2023/06/09 04:14:30;;;;;;;9.35;3.63;;;;;;;;;;5007086;28;20211;-75
2023/06/09 04:16:55;;;;;;;11.20;3.80;;;;;;;;;;5015263;28;20187;-75
2023/06/09 04:19:21;;;;;;;6.57;2.97;;;;;;;;;;5005494;28;20218;-76
2023/06/09 04:21:46;;;;;;;8.23;3.03;;;;;;;;;;5012905;28;20177;-75
2023/06/09 04:24:11;;;;;;;9.80;3.33;;;;;;;;;;4994564;28;20183;-76
2023/06/09 04:26:38;;;;;;;8.23;3.83;;;;;;;;;;4994868;28;20175;-76
2023/06/09 04:29:03;;;;;;;9.93;3.90;;;;;;;;;;5013762;28;20185;-76
2023/06/09 04:31:33;;;;;;;9.50;3.72;;;;;;;;;;5007087;28;20273;-76
2023/06/09 04:34:05;;;;;;;12.68;3.72;;;;;;;;;;5007504;28;20581;-76
2023/06/09 04:36:32;;;;;;;5.68;3.10;;;;;;;;;;5006770;28;20707;-76
2023/06/09 04:38:58;;;;;;;5.18;3.35;;;;;;;;;;4990206;28;20167;-76
2023/06/09 04:41:25;;;;;;;7.07;4.00;;;;;;;;;;5015730;28;20195;-76
2023/06/09 04:43:53;;;;;;;7.65;4.07;;;;;;;;;;4992373;28;20187;-76
2023/06/09 04:46:18;;;;;;;9.00;3.42;;;;;;;;;;4994807;28;20189;-76
2023/06/09 04:48:44;;;;;;;6.25;3.22;;;;;;;;;;5012845;28;20261;-76
2023/06/09 04:51:10;;;;;;;8.45;3.30;;;;;;;;;;5014998;28;20272;-76
2023/06/09 04:53:35;;;;;;;9.73;4.28;;;;;;;;;;5017303;28;20684;-76
2023/06/09 04:56:00;;;;;;;9.45;3.42;;;;;;;;;;5001855;28;20170;-76
2023/06/09 04:58:25;;;;;;;10.13;3.88;;;;;;;;;;5013254;28;20183;-76
2023/06/09 05:00:51;;;;;;;11.52;3.60;;;;;;;;;;5013645;28;20206;-76
2023/06/09 05:03:17;;;;;;;7.95;3.78;;;;;;;;;;5012812;28;20205;-76
2023/06/09 05:05:42;;;;;;;12.98;4.00;;;;;;;;;;5019532;28;20188;-75
2023/06/09 05:08:08;;;;;;;7.72;3.10;;;;;;;;;;5013140;28;20636;-75
2023/06/09 05:10:33;;;;;;;7.10;3.30;;;;;;;;;;5017251;28;20210;-76
2023/06/09 05:12:58;;;;;;;7.53;4.15;;;;;;;;;;5012441;28;20245;-76
2023/06/09 05:15:23;;;;;;;8.68;3.40;;;;;;;;;;5009112;28;20203;-76
2023/06/09 05:17:49;;;;;;;9.30;3.78;;;;;;;;;;5001120;28;20210;-76
2023/06/09 05:20:15;;;;;;;10.65;3.95;;;;;;;;;;4992321;28;20207;-76
2023/06/09 05:22:41;;;;;;;11.10;3.90;;;;;;;;;;4988254;28;20171;-76
2023/06/09 05:25:08;;;;;;;8.32;3.55;;;;;;;;;;5011787;28;20353;-76
2023/06/09 05:27:33;;;;;;;9.15;3.92;;;;;;;;;;5007157;28;20226;-74
2023/06/09 05:29:58;;;;;;;7.93;3.58;;;;;;;;;;5001267;28;20195;-77
2023/06/09 05:32:23;;;;;;;9.30;3.95;;;;;;;;;;5011514;28;20543;-76
2023/06/09 05:34:49;;;;;;;10.77;3.47;;;;;;;;;;5010244;28;20215;-77
2023/06/09 05:37:15;;;;;;;7.45;4.07;;;;;;;;;;4989687;28;20249;-76
2023/06/09 05:39:40;;;;;;;8.93;4.18;;;;;;;;;;4995040;28;20198;-76
2023/06/09 05:42:06;;;;;;;6.57;3.78;;;;;;;;;;5009819;28;20206;-76
2023/06/09 05:44:31;;;;;;;6.80;3.53;;;;;;;;;;5018274;28;20176;-76
2023/06/09 05:46:57;;;;;;;13.07;3.67;;;;;;;;;;4995417;28;20170;-76
2023/06/09 05:49:22;;;;;;;12.80;4.90;;;;;;;;;;5014233;28;20647;-76
2023/06/09 05:51:47;;;;;;;8.52;4.45;;;;;;;;;;5015540;28;20189;-76
2023/06/09 05:54:13;;;;;;;13.98;4.20;;;;;;;;;;5013193;28;20203;-76
2023/06/09 05:56:38;;;;;;;9.20;3.78;;;;;;;;;;5013516;28;20191;-76
2023/06/09 05:59:04;;;;;;;10.25;4.32;;;;;;;;;;5011045;28;20186;-76
2023/06/09 06:01:32;;;;;;;12.75;4.65;;;;;;;;;;5004788;28;20215;-76
2023/06/09 06:03:58;;;;;;;10.88;3.97;;;;;;;;;;5007429;28;20549;-76
2023/06/09 06:06:23;;;;;;;9.38;4.30;;;;;;;;;;5001656;28;20186;-77
2023/06/09 06:08:48;;;;;;;12.88;4.75;;;;;;;;;;4997448;28;20183;-76
2023/06/09 06:11:13;;;;;;;9.50;4.57;;;;;;;;;;5032803;22;20291;-70
2023/06/09 06:13:39;;;;;;;9.70;4.47;;;;;;;;;;5009980;28;20732;-71
2023/06/09 06:16:04;;;;;;;12.20;5.32;;;;;;;;;;5028712;28;20181;-71
2023/06/09 06:18:29;;;;;;;8.20;4.53;;;;;;;;;;5031196;28;20181;-70
2023/06/09 06:20:55;;;;;;;7.85;4.75;;;;;;;;;;5027628;28;20619;-71
2023/06/09 06:23:20;;;;;;;9.05;4.40;;;;;;;;;;5029697;28;20537;-71
2023/06/09 06:25:46;;;;;;;13.07;4.20;;;;;;;;;;5019886;28;20175;-70
2023/06/09 06:28:11;;;;;;;10.85;5.22;;;;;;;;;;5010917;28;20182;-71
2023/06/09 06:30:37;;;;;;;9.45;4.70;;;;;;;;;;5015771;28;20203;-71
2023/06/09 06:33:04;;;;;;;11.25;4.70;;;;;;;;;;5032540;28;20178;-70
2023/06/09 06:35:30;;;;;;;6.88;4.47;;;;;;;;;;5032506;28;20178;-70
2023/06/09 06:37:55;;;;;;;7.45;4.30;;;;;;;;;;5011201;28;20178;-71
2023/06/09 06:40:21;;;;;;;8.68;4.13;;;;;;;;;;5010456;28;20225;-71
2023/06/09 06:42:46;;;;;;;9.30;4.60;;;;;;;;;;5026208;28;20171;-71
2023/06/09 06:45:12;;;;;;;9.77;4.60;;;;;;;;;;5030912;28;20174;-71
2023/06/09 06:47:37;;;;;;;7.55;4.95;;;;;;;;;;5032565;28;20236;-71
2023/06/09 06:50:02;;;;;;;10.95;4.55;;;;;;;;;;5033098;28;20170;-71
2023/06/09 06:52:28;;;;;;;11.02;4.60;;;;;;;;;;5032734;28;20276;-71
2023/06/09 06:54:53;;;;;;;12.23;4.75;;;;;;;;;;5011981;28;20676;-71
2023/06/09 06:57:18;;;;;;;8.53;4.57;;;;;;;;;;5019184;28;20270;-72
2023/06/09 06:59:43;;;;;;;11.53;4.83;;;;;;;;;;5030284;28;20414;-71
2023/06/09 07:02:09;;;;;;;12.25;5.10;;;;;;;;;;5015304;28;20485;-71
2023/06/09 07:04:35;;;;;;;11.98;4.13;;;;;;;;;;5033038;28;20181;-71
2023/06/09 07:07:00;;;;;;;9.93;5.25;;;;;;;;;;5031846;28;20174;-72
2023/06/09 07:09:27;;;;;;;10.65;4.43;;;;;;;;;;5031674;28;20668;-72
2023/06/09 07:11:52;;;;;;;9.13;5.05;;;;;;;;;;5031349;28;20626;-72
2023/06/09 07:14:17;;;;;;;15.88;5.20;;;;;;;;;;5010122;28;20202;-72
2023/06/09 07:16:43;;;;;;;12.15;5.53;;;;;;;;;;5029291;28;20171;-72
2023/06/09 07:19:09;;;;;;;10.38;4.80;;;;;;;;;;5035998;28;20225;-72
2023/06/09 07:21:35;;;;;;;9.30;4.60;;;;;;;;;;5032835;28;20564;-72
2023/06/09 07:24:01;;;;;;;15.15;5.82;;;;;;;;;;5015472;28;20664;-72
2023/06/09 07:26:26;;;;;;;8.32;5.38;;;;;;;;;;5033509;28;20521;-72
2023/06/09 07:28:51;;;;;;;10.20;6.05;;;;;;;;;;5014912;28;20166;-72
2023/06/09 07:31:17;;;;;;;9.53;5.83;;;;;;;;;;5031802;28;20189;-71
2023/06/09 07:33:43;;;;;;;10.60;5.30;;;;;;;;;;5033027;28;20509;-70
2023/06/09 07:36:10;;;;;;;12.10;5.60;;;;;;;;;;5030310;28;20567;-71
2023/06/09 07:38:37;;;;;;;9.60;5.20;;;;;;;;;;5033048;28;20293;-71
2023/06/09 07:41:03;;;;;;;7.45;5.32;;;;;;;;;;5011239;28;20249;-70
2023/06/09 07:43:28;;;;;;;9.57;5.68;;;;;;;;;;5015167;28;20174;-71
2023/06/09 07:45:53;;;;;;;12.18;5.28;;;;;;;;;;5030238;28;20848;-72
2023/06/09 07:48:18;;;;;;;12.67;6.30;;;;;;;;;;5029821;28;20190;-71
2023/06/09 07:50:43;;;;;;;10.27;6.40;;;;;;;;;;5031664;28;20455;-70
2023/06/09 07:53:09;;;;;;;8.13;4.95;;;;;;;;;;5013400;28;20427;-70
2023/06/09 07:55:35;;;;;;;9.68;5.78;;;;;;;;;;5014051;28;20178;-70
2023/06/09 07:58:00;;;;;;;9.48;6.35;;;;;;;;;;5012054;28;20224;-70
2023/06/09 08:00:26;;;;;;;10.13;5.93;;;;;;;;;;5030550;28;20226;-71
2023/06/09 08:03:00;;;;;;;12.07;6.35;;;;;;;;;;5028414;28;20424;-71
2023/06/09 08:05:25;;;;;;;11.48;6.32;;;;;;;;;;5032091;28;20656;-70
2023/06/09 08:07:51;;;;;;;7.97;5.82;;;;;;;;;;5025441;28;20182;-74
2023/06/09 08:10:16;;;;;;;9.68;6.60;;;;;;;;;;5019945;28;20209;-75
2023/06/09 08:12:41;;;;;;;10.32;6.28;;;;;;;;;;5023739;28;20185;-75
2023/06/09 08:15:07;;;;;;;12.18;6.47;;;;;;;;;;5027431;28;20295;-74
2023/06/09 08:17:32;;;;;;;12.00;5.95;;;;;;;;;;5014658;28;20212;-75
2023/06/09 08:19:57;;;;;;;12.27;6.73;;;;;;;;;;5007032;28;20183;-74
2023/06/09 08:22:22;;;;;;;9.00;6.30;;;;;;;;;;5013297;28;20948;-74
2023/06/09 08:24:47;;;;;;;10.85;6.50;;;;;;;;;;5031332;28;20419;-74
2023/06/09 08:27:13;;;;;;;7.25;5.68;;;;;;;;;;5030005;28;20213;-75
2023/06/09 08:29:38;;;;;;;9.68;6.90;;;;;;;;;;5013397;28;20170;-74
2023/06/09 08:32:03;;;;;;;12.52;6.53;;;;;;;;;;5029941;28;20281;-74
2023/06/09 08:34:29;;;;;;;8.18;6.35;;;;;;;;;;5032215;28;20198;-73
2023/06/09 08:36:54;;;;;;;8.88;6.13;;;;;;;;;;5010462;28;20241;-73
2023/06/09 08:39:20;;;;;;;11.32;6.13;;;;;;;;;;5030370;28;20265;-74
2023/06/09 08:41:49;;;;;;;10.80;6.60;;;;;;;;;;5032004;28;20195;-75
2023/06/09 08:44:15;;;;;;;10.20;6.93;;;;;;;;;;5027697;28;20660;-74
2023/06/09 08:46:42;;;;;;;13.65;6.47;;;;;;;;;;5026769;28;20236;-75
2023/06/09 08:49:07;;;;;;;11.18;7.13;;;;;;;;;;5029320;28;20185;-74
2023/06/09 08:51:33;;;;;;;10.83;7.07;;;;;;;;;;5010884;28;20202;-74
2023/06/09 08:53:59;;;;;;;12.40;7.07;;;;;;;;;;5011257;28;20454;-75
2023/06/09 08:56:24;;;;;;;9.77;6.97;;;;;;;;;;5023459;28;21147;-74
2023/06/09 08:58:53;;;;;;;10.05;6.63;;;;;;;;;;5024889;28;20178;-75
2023/06/09 09:01:19;;;;;;;10.73;5.57;;;;;;;;;;5006691;28;20209;-75
2023/06/09 09:03:46;;;;;;;11.45;6.50;;;;;;;;;;5012395;28;20207;-75
2023/06/09 09:06:13;;;;;;;9.02;6.93;;;;;;;;;;5023848;28;20190;-75
2023/06/09 09:08:38;;;;;;;11.38;6.95;;;;;;;;;;5011731;28;20186;-74
2023/06/09 09:11:03;;;;;;;9.00;6.13;;;;;;;;;;5030438;28;20218;-75
2023/06/09 09:13:31;;;;;;;9.37;6.23;;;;;;;;;;5029674;28;20463;-75
2023/06/09 09:16:00;;;;;;;7.80;6.15;;;;;;;;;;5029126;28;20427;-75
2023/06/09 09:18:34;;;;;;;9.80;5.88;;;;;;;;;;5026515;28;20175;-75
2023/06/09 09:21:00;;;;;;;9.95;5.53;;;;;;;;;;5022604;28;20338;-75
2023/06/09 09:23:30;;;;;;;8.90;6.43;;;;;;;;;;5010260;28;20237;-74
2023/06/09 09:25:55;;;;;;;9.13;6.40;;;;;;;;;;5022358;28;20185;-74
2023/06/09 09:28:20;;;;;;;6.47;5.37;;;;;;;;;;5013834;28;20182;-75
2023/06/09 09:30:47;;;;;;;6.47;5.47;;;;;;;;;;5019269;28;20447;-74
2023/06/09 09:33:13;;;;;;;7.75;5.65;;;;;;;;;;5009998;28;20174;-75
2023/06/09 09:35:39;;;;;;;10.45;6.35;;;;;;;;;;5024158;28;20220;-75
2023/06/09 09:38:10;;;;;;;10.45;6.30;;;;;;;;;;5028899;28;20178;-75
2023/06/09 09:40:40;;;;;;;7.45;5.55;;;;;;;;;;5023759;28;20204;-75
2023/06/09 09:43:08;;;;;;;12.38;5.78;;;;;;;;;;5028486;28;20171;-75
2023/06/09 09:45:37;;;;;;;12.73;5.90;;;;;;;;;;5008058;28;20170;-75
2023/06/09 09:48:07;;;;;;;10.50;5.53;;;;;;;;;;5026145;28;20663;-75
2023/06/09 09:50:34;;;;;;;8.48;5.57;;;;;;;;;;5026434;28;20225;-75
2023/06/09 09:53:01;;;;;;;8.57;5.82;;;;;;;;;;5029730;28;20220;-75
2023/06/09 09:55:26;;;;;;;7.35;5.10;;;;;;;;;;5013885;28;20193;-75
2023/06/09 09:57:52;;;;;;;7.95;5.68;;;;;;;;;;5030620;28;20491;-75
2023/06/09 10:00:17;;;;;;;8.05;5.65;;;;;;;;;;5027689;28;20269;-73
2023/06/09 10:02:44;;;;;;;7.75;5.63;;;;;;;;;;5032221;28;20170;-74
2023/06/09 10:05:10;;;;;;;15.00;5.28;;;;;;;;;;5032455;28;20177;-75
2023/06/09 10:07:40;;;;;;;7.70;4.70;;;;;;;;;;5033136;28;20209;-74
2023/06/09 10:10:08;;;;;;;9.48;5.78;;;;;;;;;;5034190;28;20197;-74
2023/06/09 10:12:35;;;;;;;9.43;6.03;;;;;;;;;;5032229;28;20292;-74
2023/06/09 10:15:01;;;;;;;8.90;5.20;;;;;;;;;;5033980;28;20202;-74
2023/06/09 10:17:26;;;;;;;7.05;5.90;;;;;;;;;;5028754;28;20527;-73
2023/06/09 10:19:52;;;;;;;10.25;5.38;;;;;;;;;;5033403;28;20170;-74
2023/06/09 10:22:21;;;;;;;7.82;5.57;;;;;;;;;;5032963;28;20599;-73
2023/06/09 10:24:47;;;;;;;7.10;5.35;;;;;;;;;;5033720;28;20670;-74
2023/06/09 10:27:15;;;;;;;6.93;5.57;;;;;;;;;;5033616;28;20182;-74
2023/06/09 10:29:40;;;;;;;10.43;5.95;;;;;;;;;;5015224;28;20228;-75
2023/06/09 10:32:07;;;;;;;7.88;5.10;;;;;;;;;;5033419;28;20675;-76
2023/06/09 10:34:33;;;;;;;5.13;4.63;;;;;;;;;;5014858;28;20306;-74
2023/06/09 10:36:59;;;;;;;9.82;5.13;;;;;;;;;;5016251;28;20182;-75
2023/06/09 10:39:30;;;;;;;8.02;4.78;;;;;;;;;;5033854;28;20262;-74
2023/06/09 10:42:05;;;;;;;5.50;4.22;;;;;;;;;;5025650;28;20185;-76
2023/06/09 10:44:30;;;;;;;4.20;3.80;;;;;;;;;;5028636;28;20196;-74
2023/06/09 10:46:56;;;;;;;6.57;4.03;;;;;;;;;;5030787;28;20178;-74
2023/06/09 10:49:24;;;;;;;5.95;3.83;;;;;;;;;;5034228;28;20169;-74
2023/06/09 10:51:50;;;;;;;10.20;4.32;;;;;;;;;;5014801;28;20198;-74
2023/06/09 10:54:15;;;;;;;6.80;4.27;;;;;;;;;;5034127;28;20202;-73
2023/06/09 10:56:41;;;;;;;5.05;3.78;;;;;;;;;;5032872;28;20480;-74
2023/06/09 10:59:27;;;;;;;4.70;3.85;;;;;;;;;;5033962;28;20286;-76
2023/06/09 11:02:05;;;;;;;3.58;3.25;;;;;;;;;;5015790;28;20824;-73
2023/06/09 11:04:45;;;;;;;3.70;3.35;;;;;;;;;;5029354;28;20231;-75
2023/06/09 11:07:17;;;;;;;6.20;3.33;;;;;;;;;;5008013;28;20186;-74
2023/06/09 11:09:49;;;;;;;3.72;3.13;;;;;;;;;;5009729;28;20182;-74
2023/06/09 11:12:29;;;;;;;15.60;4.10;;;;;;;;;;5031605;28;20197;-74
2023/06/09 11:14:58;;;;;;;4.03;3.28;;;;;;;;;;5031895;28;20201;-75
2023/06/09 11:17:33;;;;;;;4.13;3.20;;;;;;;;;;5012039;28;20238;-74
2023/06/09 11:20:11;;;;;;;3.72;3.33;;;;;;;;;;5031142;28;20251;-73
2023/06/09 11:22:43;;;;;;;3.88;3.47;;;;;;;;;;5027941;28;20173;-74
2023/06/09 11:25:30;;;;;;;3.83;3.08;;;;;;;;;;5030674;28;20532;-74
2023/06/09 11:27:55;;;;;;;4.93;3.15;;;;;;;;;;5003727;28;20530;-74
2023/06/09 11:30:22;;;;;;;3.65;3.35;;;;;;;;;;5024956;28;20210;-74
2023/06/09 11:32:53;;;;;;;3.92;3.42;;;;;;;;;;5015453;28;20631;-74
2023/06/09 11:35:25;;;;;;;3.90;3.50;;;;;;;;;;5009205;28;20201;-74
2023/06/09 11:37:51;;;;;;;4.40;3.72;;;;;;;;;;5032510;28;20715;-74
2023/06/09 11:40:16;;;;;;;4.55;4.13;;;;;;;;;;5027709;28;20276;-74
2023/06/09 11:42:42;;;;;;;4.00;3.65;;;;;;;;;;5025969;28;20177;-75
2023/06/09 11:45:07;;;;;;;5.00;3.38;;;;;;;;;;5027168;28;20178;-75
2023/06/09 11:47:32;;;;;;;3.90;3.55;;;;;;;;;;5028441;28;20205;-74
2023/06/09 11:50:04;;;;;;;4.88;3.42;;;;;;;;;;5012578;28;20186;-74
2023/06/09 11:52:29;;;;;;;14.38;3.55;;;;;;;;;;5026667;28;20228;-75
2023/06/09 11:54:54;;;;;;;3.80;3.40;;;;;;;;;;5028097;28;20197;-75
2023/06/09 11:57:21;;;;;;;4.13;3.03;;;;;;;;;;5025963;28;20174;-74
2023/06/09 11:59:46;;;;;;;4.13;3.80;;;;;;;;;;5009981;28;20594;-74
2023/06/09 12:02:12;;;;;;;4.78;4.28;;;;;;;;;;5024844;28;20184;-74
2023/06/09 12:04:41;;;;;;;5.38;3.95;;;;;;;;;;5031624;28;20179;-74
2023/06/09 12:07:09;;;;;;;4.03;3.65;;;;;;;;;;5030672;28;20678;-75
2023/06/09 12:09:35;;;;;;;3.95;3.20;;;;;;;;;;5013482;28;20718;-75
2023/06/09 12:12:00;;;;;;;6.17;3.20;;;;;;;;;;5064149;22;20232;-78
2023/06/09 12:14:25;;;;;;;4.37;3.20;;;;;;;;;;5048267;28;20193;-78
2023/06/09 12:16:50;;;;;;;3.67;3.33;;;;;;;;;;5048370;28;20173;-78
2023/06/09 12:19:17;;;;;;;4.60;3.65;;;;;;;;;;5047632;28;20464;-77
2023/06/09 12:21:45;;;;;;;4.20;3.08;;;;;;;;;;5049141;28;20254;-78
2023/06/09 12:24:11;;;;;;;4.13;3.50;;;;;;;;;;5051875;28;20199;-79
2023/06/09 12:26:40;;;;;;;3.38;2.78;;;;;;;;;;5044796;28;21474;-78
2023/06/09 12:29:05;;;;;;;3.83;2.83;;;;;;;;;;5047375;28;20181;-79
2023/06/09 12:31:30;;;;;;;4.83;3.00;;;;;;;;;;5052867;28;20331;-78
2023/06/09 12:33:56;;;;;;;6.05;3.58;;;;;;;;;;5048080;28;20270;-78
2023/06/09 12:36:22;;;;;;;4.70;3.83;;;;;;;;;;5051811;28;20173;-78
2023/06/09 12:38:48;;;;;;;4.68;3.45;;;;;;;;;;5049867;28;20216;-78
2023/06/09 12:41:15;;;;;;;4.30;3.30;;;;;;;;;;5045478;28;20315;-78
2023/06/09 12:43:51;;;;;;;4.30;3.47;;;;;;;;;;5048724;28;20174;-78
2023/06/09 12:46:26;;;;;;;3.45;3.15;;;;;;;;;;5042507;28;20177;-78
2023/06/09 12:49:02;;;;;;;7.68;3.35;;;;;;;;;;5049696;28;20207;-79
2023/06/09 12:51:28;;;;;;;4.03;2.97;;;;;;;;;;5048233;28;20192;-79
2023/06/09 12:53:54;;;;;;;4.20;3.33;;;;;;;;;;5048877;28;20223;-79
2023/06/09 12:56:19;;;;;;;4.10;3.40;;;;;;;;;;5042217;28;20211;-78
2023/06/09 12:58:45;;;;;;;4.57;3.45;;;;;;;;;;5048307;28;20176;-78
2023/06/09 13:01:11;;;;;;;3.67;3.38;;;;;;;;;;5052288;28;20279;-78
2023/06/09 13:03:36;;;;;;;4.72;3.97;;;;;;;;;;5048492;28;20721;-78
2023/06/09 13:06:01;;;;;;;6.17;4.23;;;;;;;;;;5054204;28;20184;-79
2023/06/09 13:08:26;;;;;;;4.93;3.47;;;;;;;;;;5046631;28;20429;-78
2023/06/09 13:10:51;;;;;;;4.97;3.70;;;;;;;;;;5051896;28;20261;-78
2023/06/09 13:13:17;;;;;;;6.03;3.50;;;;;;;;;;5049944;28;20189;-77
2023/06/09 13:15:42;;;;;;;3.88;3.45;;;;;;;;;;5052528;28;20827;-78
2023/06/09 13:18:11;;;;;;;5.40;3.80;;;;;;;;;;5045607;28;20208;-77
2023/06/09 13:20:36;;;;;;;4.18;3.35;;;;;;;;;;5046958;28;20196;-77
2023/06/09 13:23:01;;;;;;;4.50;3.40;;;;;;;;;;5044846;28;20173;-79
2023/06/09 13:25:26;;;;;;;4.47;3.63;;;;;;;;;;5051277;28;20943;-78
2023/06/09 13:27:52;;;;;;;5.57;4.23;;;;;;;;;;5048178;28;20188;-78
2023/06/09 13:30:17;;;;;;;6.18;3.88;;;;;;;;;;5051862;28;20193;-78
2023/06/09 13:32:42;;;;;;;5.37;4.57;;;;;;;;;;5045704;28;20188;-79
2023/06/09 13:35:08;;;;;;;5.78;3.60;;;;;;;;;;5048706;28;20548;-79
2023/06/09 13:37:33;;;;;;;4.13;3.60;;;;;;;;;;5047603;28;20168;-79
2023/06/09 13:39:58;;;;;;;6.00;3.50;;;;;;;;;;5056854;28;20157;-76
2023/06/09 13:42:24;;;;;;;4.17;3.50;;;;;;;;;;5050599;28;20478;-80
2023/06/09 13:44:49;;;;;;;4.53;3.55;;;;;;;;;;5051015;28;20239;-79
2023/06/09 13:47:14;;;;;;;3.90;3.53;;;;;;;;;;5047393;28;20188;-78
2023/06/09 13:49:39;;;;;;;3.90;3.50;;;;;;;;;;5056085;28;20199;-79
2023/06/09 13:52:05;;;;;;;4.50;3.50;;;;;;;;;;5050285;28;20208;-79
2023/06/09 13:54:30;;;;;;;4.97;3.88;;;;;;;;;;5052377;28;20694;-79
2023/06/09 13:56:55;;;;;;;4.80;3.87;;;;;;;;;;5046931;28;20183;-78
2023/06/09 13:59:21;;;;;;;5.07;3.87;;;;;;;;;;5038906;28;20545;-76
2023/06/09 14:01:46;;;;;;;5.10;3.97;;;;;;;;;;5044456;28;20721;-77
2023/06/09 14:04:12;;;;;;;5.28;3.90;;;;;;;;;;5045936;28;20238;-75
2023/06/09 14:06:41;;;;;;;5.15;4.05;;;;;;;;;;5043716;28;20172;-77
2023/06/09 14:09:07;;;;;;;4.22;3.30;;;;;;;;;;5042395;28;20173;-77
2023/06/09 14:11:33;;;;;;;5.82;3.72;;;;;;;;;;5054057;28;20208;-77
2023/06/09 14:13:58;;;;;;;3.95;3.50;;;;;;;;;;5047080;28;20211;-76
2023/06/09 14:16:23;;;;;;;3.53;3.22;;;;;;;;;;5048853;28;20181;-77
2023/06/09 14:18:48;;;;;;;4.53;3.57;;;;;;;;;;5053653;28;20165;-78
2023/06/09 14:21:14;;;;;;;4.27;3.50;;;;;;;;;;5051133;28;20257;-79
2023/06/09 14:23:40;;;;;;;4.60;3.30;;;;;;;;;;5053238;28;20188;-78
2023/06/09 14:26:05;;;;;;;3.50;3.20;;;;;;;;;;5044496;28;20561;-79
2023/06/09 14:28:31;;;;;;;4.50;3.22;;;;;;;;;;5042889;28;20182;-77
2023/06/09 14:30:56;;;;;;;3.42;3.13;;;;;;;;;;5049472;28;20197;-77
2023/06/09 14:33:21;;;;;;;4.07;3.63;;;;;;;;;;5049434;28;20256;-77
2023/06/09 14:35:47;;;;;;;5.57;3.47;;;;;;;;;;5045620;28;20519;-78